Time;durP1;ratioP1;P1;durP2;ratioP2;P2;SDS_P1;SDS_P2;PMS_P1;PMS_P2;Temp;Humidity;BMP_temperature;BMP_pressure;BME280_temperature;BME280_humidity;BME280_pressure;Samples;Min_cycle;Max_cycle;Signal;HPM_P1;HPM_P2
2023/08/09 00:02:13;;;;;;;4.80;4.43;;;;;;;;;;5022447;28;20467;-78
2023/08/09 00:04:39;;;;;;;4.00;4.00;;;;;;;;;;5022589;28;20488;-79
2023/08/09 00:07:05;;;;;;;4.60;4.40;;;;;;;;;;5022040;28;20446;-79
2023/08/09 00:09:31;;;;;;;4.57;4.47;;;;;;;;;;5023122;28;20807;-79
2023/08/09 00:11:57;;;;;;;4.57;4.27;;;;;;;;;;5021759;28;20438;-79
2023/08/09 00:14:23;;;;;;;4.40;4.30;;;;;;;;;;5015789;28;20512;-79
2023/08/09 00:16:49;;;;;;;5.10;4.80;;;;;;;;;;5023135;28;20438;-80
2023/08/09 00:19:15;;;;;;;5.90;5.50;;;;;;;;;;5020609;28;20429;-78
2023/08/09 00:21:42;;;;;;;6.77;5.17;;;;;;;;;;5001359;28;20434;-79
2023/08/09 00:24:08;;;;;;;3.30;3.20;;;;;;;;;;5022872;28;20525;-79
2023/08/09 00:26:34;;;;;;;2.23;1.57;;;;;;;;;;5021733;28;20824;-79
2023/08/09 00:29:00;;;;;;;1.40;1.30;;;;;;;;;;5022714;28;20526;-79
2023/08/09 00:31:26;;;;;;;1.30;1.30;;;;;;;;;;5001812;28;21233;-78
2023/08/09 00:33:52;;;;;;;1.33;1.33;;;;;;;;;;5021381;28;21019;-79
2023/08/09 00:36:21;;;;;;;1.20;1.20;;;;;;;;;;5018626;28;20446;-77
2023/08/09 00:38:47;;;;;;;0.90;0.90;;;;;;;;;;5021760;28;20974;-80
2023/08/09 00:41:13;;;;;;;1.20;1.20;;;;;;;;;;5021524;28;20976;-78
2023/08/09 00:43:39;;;;;;;1.60;1.60;;;;;;;;;;5020787;28;20485;-80
2023/08/09 00:46:05;;;;;;;1.27;1.27;;;;;;;;;;5021147;28;20465;-78
2023/08/09 00:48:31;;;;;;;1.23;1.23;;;;;;;;;;5020956;28;20454;-79
2023/08/09 00:50:57;;;;;;;1.20;1.20;;;;;;;;;;5020427;28;20458;-79
2023/08/09 00:53:24;;;;;;;0.90;0.90;;;;;;;;;;5021044;28;20441;-78
2023/08/09 00:55:50;;;;;;;1.10;1.10;;;;;;;;;;5007372;28;20447;-78
2023/08/09 00:58:16;;;;;;;0.70;0.70;;;;;;;;;;5023531;28;20442;-78
2023/08/09 01:00:42;;;;;;;1.10;1.10;;;;;;;;;;5019460;28;20434;-77
2023/08/09 01:03:08;;;;;;;0.87;0.87;;;;;;;;;;5003356;28;21047;-77
2023/08/09 01:05:40;;;;;;;1.20;1.20;;;;;;;;;;5002173;28;20543;-79
2023/08/09 01:08:13;;;;;;;1.03;1.00;;;;;;;;;;5022369;28;20430;-79
2023/08/09 01:10:42;;;;;;;0.90;0.90;;;;;;;;;;5022976;28;20949;-79
2023/08/09 01:13:08;;;;;;;0.83;0.83;;;;;;;;;;5019180;28;20553;-79
2023/08/09 01:15:35;;;;;;;1.83;1.10;;;;;;;;;;5023331;28;20525;-78
2023/08/09 01:18:02;;;;;;;1.00;1.00;;;;;;;;;;5022820;28;20513;-79
2023/08/09 01:20:29;;;;;;;1.10;1.10;;;;;;;;;;5021670;28;21023;-78
2023/08/09 01:23:03;;;;;;;1.00;1.00;;;;;;;;;;5024749;28;20434;-80
2023/08/09 01:25:29;;;;;;;1.20;1.20;;;;;;;;;;5020894;28;20505;-78
2023/08/09 01:27:55;;;;;;;1.33;1.33;;;;;;;;;;5023362;28;21074;-79
2023/08/09 01:30:22;;;;;;;1.40;1.40;;;;;;;;;;5022390;28;20553;-79
2023/08/09 01:32:48;;;;;;;1.20;1.20;;;;;;;;;;5001849;28;20800;-79
2023/08/09 01:35:15;;;;;;;1.47;1.47;;;;;;;;;;5021473;28;20937;-78
2023/08/09 01:37:48;;;;;;;1.20;1.20;;;;;;;;;;5020381;28;20603;-79
2023/08/09 01:40:15;;;;;;;1.00;1.00;;;;;;;;;;5023622;28;20529;-79
2023/08/09 01:42:42;;;;;;;1.97;1.50;;;;;;;;;;5023811;28;20446;-79
2023/08/09 01:45:10;;;;;;;1.20;1.20;;;;;;;;;;5022516;28;20506;-80
2023/08/09 01:47:36;;;;;;;1.33;1.33;;;;;;;;;;5024648;28;20472;-79
2023/08/09 01:50:04;;;;;;;1.37;1.37;;;;;;;;;;5025677;28;20444;-79
2023/08/09 01:52:30;;;;;;;1.40;1.40;;;;;;;;;;5024583;28;20457;-79
2023/08/09 01:54:56;;;;;;;1.10;1.10;;;;;;;;;;5005321;28;20432;-80
2023/08/09 01:57:22;;;;;;;1.13;1.13;;;;;;;;;;5024927;28;20469;-78
2023/08/09 01:59:48;;;;;;;1.43;1.27;;;;;;;;;;5025118;28;21259;-79
2023/08/09 02:02:14;;;;;;;1.50;1.50;;;;;;;;;;5023715;28;20450;-79
2023/08/09 02:04:40;;;;;;;1.30;1.30;;;;;;;;;;5023887;28;20435;-80
2023/08/09 02:07:06;;;;;;;2.20;1.20;;;;;;;;;;5022577;28;20454;-80
2023/08/09 02:09:32;;;;;;;1.70;1.30;;;;;;;;;;5024085;28;20450;-79
2023/08/09 02:11:58;;;;;;;1.40;1.20;;;;;;;;;;5024568;28;20554;-80
2023/08/09 02:14:25;;;;;;;1.10;1.10;;;;;;;;;;5018618;28;20520;-79
2023/08/09 02:16:51;;;;;;;0.90;0.90;;;;;;;;;;5033583;28;20431;-78
2023/08/09 02:19:17;;;;;;;1.40;1.40;;;;;;;;;;5025673;28;20507;-79
2023/08/09 02:21:43;;;;;;;1.27;1.27;;;;;;;;;;5025913;28;20445;-81
2023/08/09 02:24:10;;;;;;;1.67;1.57;;;;;;;;;;5033420;28;20474;-79
2023/08/09 02:26:36;;;;;;;1.63;1.63;;;;;;;;;;5018515;28;20467;-79
2023/08/09 02:29:02;;;;;;;1.33;1.33;;;;;;;;;;5035249;28;20531;-78
2023/08/09 02:31:28;;;;;;;1.70;1.70;;;;;;;;;;5028730;28;20516;-79
2023/08/09 02:33:55;;;;;;;1.50;1.50;;;;;;;;;;5025946;28;20921;-78
2023/08/09 02:36:22;;;;;;;1.93;1.93;;;;;;;;;;5014850;28;20461;-78
2023/08/09 02:38:48;;;;;;;1.57;1.57;;;;;;;;;;5031216;28;20839;-79
2023/08/09 02:41:14;;;;;;;1.90;1.80;;;;;;;;;;5028159;28;20434;-78
2023/08/09 02:43:40;;;;;;;1.70;1.70;;;;;;;;;;5019205;28;20475;-77
2023/08/09 02:46:06;;;;;;;1.50;1.50;;;;;;;;;;5035881;28;20825;-79
2023/08/09 02:48:32;;;;;;;1.80;1.70;;;;;;;;;;5027800;28;21234;-79
2023/08/09 02:50:58;;;;;;;1.90;1.90;;;;;;;;;;5032423;28;20546;-79
2023/08/09 02:53:33;;;;;;;1.73;1.73;;;;;;;;;;5027388;28;20454;-79
2023/08/09 02:55:59;;;;;;;6.63;6.30;;;;;;;;;;5028043;28;20645;-79
2023/08/09 02:58:25;;;;;;;2.90;2.90;;;;;;;;;;5007689;28;20549;-80
2023/08/09 03:00:51;;;;;;;2.70;2.60;;;;;;;;;;5018914;28;20520;-78
2023/08/09 03:03:17;;;;;;;2.60;2.60;;;;;;;;;;5016201;28;20419;-79
2023/08/09 03:05:43;;;;;;;3.17;3.00;;;;;;;;;;5018560;28;20450;-78
2023/08/09 03:08:09;;;;;;;3.17;3.07;;;;;;;;;;5019596;28;21173;-78
2023/08/09 03:10:35;;;;;;;2.20;2.20;;;;;;;;;;5022595;28;20443;-77
2023/08/09 03:13:01;;;;;;;3.00;2.60;;;;;;;;;;5002856;28;20805;-78
2023/08/09 03:15:27;;;;;;;3.40;3.20;;;;;;;;;;5026005;28;20811;-78
2023/08/09 03:17:53;;;;;;;3.00;3.00;;;;;;;;;;5034768;28;20925;-78
2023/08/09 03:20:19;;;;;;;4.30;4.10;;;;;;;;;;5028634;28;20518;-78
2023/08/09 03:22:47;;;;;;;5.00;4.90;;;;;;;;;;5022720;28;20441;-78
2023/08/09 03:25:13;;;;;;;5.10;5.00;;;;;;;;;;5005568;28;20512;-78
2023/08/09 03:27:39;;;;;;;5.43;5.33;;;;;;;;;;5022392;28;20973;-78
2023/08/09 03:30:08;;;;;;;5.63;5.30;;;;;;;;;;5021600;28;20945;-77
2023/08/09 03:32:34;;;;;;;6.77;6.47;;;;;;;;;;5019572;28;20442;-78
2023/08/09 03:35:00;;;;;;;5.93;5.83;;;;;;;;;;5021518;28;20426;-78
2023/08/09 03:37:26;;;;;;;6.60;6.17;;;;;;;;;;5021295;28;20522;-79
2023/08/09 03:39:52;;;;;;;6.07;5.80;;;;;;;;;;5021561;28;20446;-80
2023/08/09 03:42:18;;;;;;;5.93;5.67;;;;;;;;;;5022954;28;20516;-79
2023/08/09 03:44:44;;;;;;;6.83;6.33;;;;;;;;;;5021362;28;20486;-78
2023/08/09 03:47:10;;;;;;;5.47;5.30;;;;;;;;;;5023707;28;20425;-78
2023/08/09 03:49:36;;;;;;;6.37;5.97;;;;;;;;;;5022296;28;20535;-80
2023/08/09 03:52:02;;;;;;;5.60;5.40;;;;;;;;;;5022660;28;20427;-80
2023/08/09 03:54:30;;;;;;;7.37;6.77;;;;;;;;;;5020199;28;20442;-77
2023/08/09 03:56:56;;;;;;;8.93;8.33;;;;;;;;;;5004738;28;20443;-79
2023/08/09 03:59:23;;;;;;;7.57;6.97;;;;;;;;;;5022606;28;20524;-78
2023/08/09 04:01:58;;;;;;;7.37;6.97;;;;;;;;;;5017086;28;20447;-79
2023/08/09 04:04:24;;;;;;;7.07;6.67;;;;;;;;;;5021282;28;20435;-78
2023/08/09 04:06:50;;;;;;;8.70;8.00;;;;;;;;;;5022119;28;20466;-79
2023/08/09 04:09:16;;;;;;;7.43;6.90;;;;;;;;;;5000358;28;20434;-78
2023/08/09 04:11:42;;;;;;;8.23;7.47;;;;;;;;;;5022217;28;20836;-79
2023/08/09 04:14:08;;;;;;;7.43;6.93;;;;;;;;;;5011806;28;20484;-79
2023/08/09 04:16:35;;;;;;;8.60;8.00;;;;;;;;;;5021521;28;20434;-78
2023/08/09 04:19:01;;;;;;;11.23;9.87;;;;;;;;;;5021789;28;21114;-79
2023/08/09 04:21:27;;;;;;;14.40;12.93;;;;;;;;;;5022943;28;21168;-79
2023/08/09 04:23:53;;;;;;;19.93;17.97;;;;;;;;;;5022972;28;20443;-78
2023/08/09 04:26:19;;;;;;;16.43;14.40;;;;;;;;;;5020898;28;20469;-79
2023/08/09 04:28:45;;;;;;;14.80;12.40;;;;;;;;;;5021207;28;20446;-78
2023/08/09 04:31:13;;;;;;;15.70;13.47;;;;;;;;;;5026621;28;20451;-78
2023/08/09 04:33:39;;;;;;;17.93;14.33;;;;;;;;;;5022995;28;20462;-80
2023/08/09 04:36:05;;;;;;;17.63;14.43;;;;;;;;;;5022020;28;20535;-78
2023/08/09 04:38:31;;;;;;;15.63;13.40;;;;;;;;;;5020760;28;20483;-79
2023/08/09 04:40:57;;;;;;;21.50;15.30;;;;;;;;;;5021758;28;20500;-79
2023/08/09 04:43:23;;;;;;;20.50;15.57;;;;;;;;;;5020860;28;20545;-79
2023/08/09 04:45:49;;;;;;;18.47;16.00;;;;;;;;;;5022481;28;20498;-78
2023/08/09 04:48:17;;;;;;;22.13;15.60;;;;;;;;;;5023830;28;20434;-78
2023/08/09 04:50:43;;;;;;;21.20;16.10;;;;;;;;;;4999825;28;21210;-78
2023/08/09 04:53:09;;;;;;;17.30;13.80;;;;;;;;;;5017965;28;20430;-79
2023/08/09 04:55:34;;;;;;;19.00;14.80;;;;;;;;;;5021867;28;20957;-79
2023/08/09 04:58:00;;;;;;;22.73;14.93;;;;;;;;;;4997473;28;20457;-79
2023/08/09 05:00:26;;;;;;;18.50;14.03;;;;;;;;;;5016584;28;20495;-78
2023/08/09 05:02:53;;;;;;;21.50;14.90;;;;;;;;;;5021101;28;20422;-81
2023/08/09 05:05:19;;;;;;;22.47;14.70;;;;;;;;;;5021724;28;20550;-78
2023/08/09 05:07:45;;;;;;;19.60;14.30;;;;;;;;;;5020009;28;20521;-78
2023/08/09 05:10:11;;;;;;;26.20;15.93;;;;;;;;;;5022424;28;20437;-79
2023/08/09 05:12:37;;;;;;;34.00;19.43;;;;;;;;;;4993414;28;20525;-78
2023/08/09 05:15:03;;;;;;;25.07;15.33;;;;;;;;;;5021925;28;20439;-78
2023/08/09 05:17:29;;;;;;;25.73;17.10;;;;;;;;;;5021838;28;20435;-79
2023/08/09 05:19:55;;;;;;;29.63;18.97;;;;;;;;;;5022695;28;20492;-78
2023/08/09 05:22:21;;;;;;;22.67;17.07;;;;;;;;;;5025809;28;20461;-79
2023/08/09 05:24:48;;;;;;;29.43;18.60;;;;;;;;;;5024901;28;20438;-78
2023/08/09 05:27:14;;;;;;;32.40;18.40;;;;;;;;;;5027328;28;21141;-78
2023/08/09 05:29:40;;;;;;;21.67;16.47;;;;;;;;;;5024558;28;21087;-78
2023/08/09 05:32:06;;;;;;;25.30;17.57;;;;;;;;;;5023923;28;20426;-79
2023/08/09 05:34:32;;;;;;;28.93;17.77;;;;;;;;;;5013404;28;20518;-79
2023/08/09 05:36:58;;;;;;;33.10;21.57;;;;;;;;;;5023777;28;20419;-79
2023/08/09 05:39:24;;;;;;;36.20;22.00;;;;;;;;;;5022917;28;20442;-79
2023/08/09 05:41:50;;;;;;;30.50;20.27;;;;;;;;;;5020761;28;20458;-78
2023/08/09 05:44:16;;;;;;;33.40;21.47;;;;;;;;;;5015182;28;20485;-78
2023/08/09 05:46:42;;;;;;;31.27;21.30;;;;;;;;;;5019648;28;20470;-78
2023/08/09 05:49:08;;;;;;;35.73;22.90;;;;;;;;;;5024421;28;20430;-78
2023/08/09 05:51:35;;;;;;;37.03;24.70;;;;;;;;;;5023235;28;20449;-78
2023/08/09 05:54:01;;;;;;;31.53;21.40;;;;;;;;;;5023841;28;20948;-79
2023/08/09 05:56:27;;;;;;;32.73;22.53;;;;;;;;;;5022489;28;20521;-78
2023/08/09 05:58:53;;;;;;;22.50;18.37;;;;;;;;;;5021500;28;20549;-79
2023/08/09 06:01:20;;;;;;;21.30;16.40;;;;;;;;;;5022442;28;20449;-79
2023/08/09 06:03:50;;;;;;;25.10;19.07;;;;;;;;;;5021098;28;20457;-78
2023/08/09 06:06:16;;;;;;;23.20;18.20;;;;;;;;;;5020802;28;20498;-79
2023/08/09 06:08:42;;;;;;;19.40;17.27;;;;;;;;;;5019580;28;20513;-80
2023/08/09 06:11:08;;;;;;;22.47;18.10;;;;;;;;;;5019029;28;21075;-80
2023/08/09 06:13:34;;;;;;;22.20;17.30;;;;;;;;;;5022324;28;20579;-79
2023/08/09 06:16:00;;;;;;;18.43;16.53;;;;;;;;;;5023391;28;20446;-79
2023/08/09 06:18:26;;;;;;;17.87;16.17;;;;;;;;;;5024581;28;20430;-79
2023/08/09 06:20:54;;;;;;;20.63;18.40;;;;;;;;;;5021616;28;20626;-79
2023/08/09 06:23:21;;;;;;;22.30;19.93;;;;;;;;;;5024059;28;20434;-78
2023/08/09 06:25:48;;;;;;;23.30;19.27;;;;;;;;;;5020840;28;21052;-79
2023/08/09 06:28:15;;;;;;;23.80;21.13;;;;;;;;;;5022464;28;20435;-78
2023/08/09 06:30:41;;;;;;;22.30;19.90;;;;;;;;;;5011407;28;20460;-78
2023/08/09 06:33:07;;;;;;;26.30;19.87;;;;;;;;;;5020884;28;21406;-79
2023/08/09 06:35:33;;;;;;;22.87;19.90;;;;;;;;;;5022794;28;20449;-78
2023/08/09 06:37:59;;;;;;;22.87;20.47;;;;;;;;;;5022593;28;20550;-80
2023/08/09 06:40:25;;;;;;;24.43;19.77;;;;;;;;;;5017826;28;20450;-78
2023/08/09 06:42:51;;;;;;;23.17;18.33;;;;;;;;;;5020936;28;20470;-78
2023/08/09 06:45:17;;;;;;;20.20;18.13;;;;;;;;;;5022270;28;20462;-78
2023/08/09 06:47:43;;;;;;;19.83;17.87;;;;;;;;;;5002876;28;20432;-78
2023/08/09 06:50:09;;;;;;;19.47;17.60;;;;;;;;;;5021555;28;20474;-79
2023/08/09 06:52:36;;;;;;;22.53;20.23;;;;;;;;;;5016936;28;20656;-78
2023/08/09 06:55:03;;;;;;;19.57;17.60;;;;;;;;;;5022232;28;20434;-78
2023/08/09 06:57:28;;;;;;;17.40;15.70;;;;;;;;;;5022994;28;20518;-79
2023/08/09 06:59:55;;;;;;;22.13;19.97;;;;;;;;;;5023459;28;21013;-80
2023/08/09 07:02:21;;;;;;;14.67;13.47;;;;;;;;;;5012392;28;20546;-78
2023/08/09 07:04:47;;;;;;;15.27;14.10;;;;;;;;;;5022490;28;20521;-78
2023/08/09 07:07:13;;;;;;;15.33;14.23;;;;;;;;;;5018979;28;20439;-79
2023/08/09 07:09:40;;;;;;;17.23;15.93;;;;;;;;;;5014549;28;20489;-78
2023/08/09 07:12:06;;;;;;;16.70;15.50;;;;;;;;;;5021935;28;20969;-78
2023/08/09 07:14:32;;;;;;;16.93;15.53;;;;;;;;;;5021818;28;20449;-79
2023/08/09 07:16:58;;;;;;;17.10;15.70;;;;;;;;;;5021681;28;20438;-77
2023/08/09 07:19:25;;;;;;;17.87;16.03;;;;;;;;;;5021234;28;20438;-79
2023/08/09 07:21:52;;;;;;;17.97;16.17;;;;;;;;;;5017584;28;20849;-78
2023/08/09 07:24:18;;;;;;;14.90;13.60;;;;;;;;;;5022105;28;20437;-79
2023/08/09 07:26:44;;;;;;;15.00;13.90;;;;;;;;;;5021093;28;20559;-78
2023/08/09 07:29:10;;;;;;;13.03;11.93;;;;;;;;;;5018474;28;20450;-78
2023/08/09 07:31:36;;;;;;;12.90;12.00;;;;;;;;;;5020726;28;20430;-78
2023/08/09 07:34:02;;;;;;;13.17;12.03;;;;;;;;;;5020755;28;21032;-78
2023/08/09 07:36:28;;;;;;;11.67;10.97;;;;;;;;;;5022731;28;20500;-79
2023/08/09 07:38:54;;;;;;;12.13;11.20;;;;;;;;;;5013651;28;20466;-78
2023/08/09 07:41:20;;;;;;;11.80;11.03;;;;;;;;;;5021192;28;20430;-80
2023/08/09 07:43:46;;;;;;;11.33;10.63;;;;;;;;;;5021017;28;20524;-78
2023/08/09 07:46:12;;;;;;;10.97;10.13;;;;;;;;;;5021656;28;20654;-78
2023/08/09 07:48:38;;;;;;;9.77;9.00;;;;;;;;;;4989669;28;20451;-80
2023/08/09 07:51:06;;;;;;;9.33;8.83;;;;;;;;;;5020367;28;20410;-78
2023/08/09 07:53:34;;;;;;;7.77;7.37;;;;;;;;;;5020502;28;20442;-80
2023/08/09 07:56:00;;;;;;;8.50;8.00;;;;;;;;;;5002133;28;20438;-81
2023/08/09 07:58:26;;;;;;;9.30;8.80;;;;;;;;;;5022507;28;20500;-78
2023/08/09 08:00:52;;;;;;;7.17;6.97;;;;;;;;;;5020826;28;20473;-77
2023/08/09 08:03:18;;;;;;;7.33;6.90;;;;;;;;;;5021549;28;21011;-77
2023/08/09 08:05:45;;;;;;;7.33;6.90;;;;;;;;;;5017169;28;20503;-77
2023/08/09 08:08:11;;;;;;;7.43;7.03;;;;;;;;;;5018506;28;20445;-78
2023/08/09 08:10:37;;;;;;;7.90;7.50;;;;;;;;;;5013579;28;20545;-79
2023/08/09 08:13:03;;;;;;;6.23;6.03;;;;;;;;;;5020960;28;20518;-79
2023/08/09 08:15:29;;;;;;;6.87;6.47;;;;;;;;;;5018608;28;20478;-78
2023/08/09 08:17:56;;;;;;;6.40;6.20;;;;;;;;;;5018843;28;20485;-78
2023/08/09 08:20:22;;;;;;;7.07;6.70;;;;;;;;;;5020280;28;20477;-77
2023/08/09 08:22:49;;;;;;;6.23;6.00;;;;;;;;;;5016896;28;20462;-77
2023/08/09 08:25:16;;;;;;;5.70;5.50;;;;;;;;;;5022084;28;20465;-79
2023/08/09 08:27:45;;;;;;;5.80;5.53;;;;;;;;;;5003786;28;20557;-80
2023/08/09 08:30:12;;;;;;;5.47;5.27;;;;;;;;;;5020362;28;20485;-79
2023/08/09 08:32:39;;;;;;;5.43;5.23;;;;;;;;;;5013115;28;20527;-78
2023/08/09 08:35:10;;;;;;;6.00;5.70;;;;;;;;;;4998259;28;20418;-79
2023/08/09 08:37:36;;;;;;;6.90;6.57;;;;;;;;;;5020188;28;20576;-79
2023/08/09 08:40:07;;;;;;;5.90;5.60;;;;;;;;;;5022393;28;20434;-78
2023/08/09 08:42:33;;;;;;;6.00;5.73;;;;;;;;;;5021102;28;20631;-77
2023/08/09 08:45:00;;;;;;;6.57;6.37;;;;;;;;;;5020521;28;20525;-77
2023/08/09 08:47:26;;;;;;;6.90;6.60;;;;;;;;;;5018611;28;20446;-79
2023/08/09 08:49:53;;;;;;;6.73;6.53;;;;;;;;;;5019680;28;20449;-79
2023/08/09 08:52:19;;;;;;;7.70;7.30;;;;;;;;;;5020688;28;20552;-79
2023/08/09 08:54:45;;;;;;;9.40;6.40;;;;;;;;;;5016966;28;20549;-79
2023/08/09 08:57:12;;;;;;;5.67;5.57;;;;;;;;;;5023695;28;20528;-77
2023/08/09 08:59:39;;;;;;;5.43;5.33;;;;;;;;;;5021460;28;21018;-78
2023/08/09 09:02:08;;;;;;;5.40;5.20;;;;;;;;;;5023041;28;20884;-78
2023/08/09 09:04:38;;;;;;;4.83;4.73;;;;;;;;;;5001128;28;20501;-77
2023/08/09 09:07:05;;;;;;;5.03;4.83;;;;;;;;;;5021687;28;20422;-75
2023/08/09 09:09:31;;;;;;;4.43;4.23;;;;;;;;;;5019577;28;20509;-77
2023/08/09 09:12:00;;;;;;;4.40;4.30;;;;;;;;;;5020584;28;20549;-78
2023/08/09 09:14:26;;;;;;;5.00;4.80;;;;;;;;;;5024730;28;20438;-79
2023/08/09 09:16:52;;;;;;;5.47;5.37;;;;;;;;;;5019996;28;20794;-78
2023/08/09 09:19:18;;;;;;;5.20;5.10;;;;;;;;;;5024757;28;20439;-80
2023/08/09 09:21:45;;;;;;;6.13;5.90;;;;;;;;;;5021711;28;20470;-78
2023/08/09 09:24:11;;;;;;;5.90;5.63;;;;;;;;;;5021458;28;20586;-78
2023/08/09 09:26:38;;;;;;;9.00;8.60;;;;;;;;;;5022968;28;20474;-78
2023/08/09 09:29:08;;;;;;;9.47;8.87;;;;;;;;;;5023213;28;20472;-80
2023/08/09 09:31:39;;;;;;;9.53;9.03;;;;;;;;;;5023674;28;20451;-79
2023/08/09 09:34:06;;;;;;;8.60;8.30;;;;;;;;;;5024783;28;20496;-78
2023/08/09 09:36:33;;;;;;;8.40;8.00;;;;;;;;;;5021860;28;20438;-77
2023/08/09 09:38:59;;;;;;;7.70;7.40;;;;;;;;;;5022579;28;20435;-78
2023/08/09 09:41:25;;;;;;;9.70;8.80;;;;;;;;;;5019183;28;20446;-78
2023/08/09 09:43:51;;;;;;;9.67;8.87;;;;;;;;;;5023746;28;20466;-79
2023/08/09 09:46:21;;;;;;;11.40;10.60;;;;;;;;;;4999614;28;20477;-79
2023/08/09 09:49:01;;;;;;;15.50;14.20;;;;;;;;;;5022374;28;20449;-79
2023/08/09 09:51:27;;;;;;;14.00;13.00;;;;;;;;;;5021755;28;20442;-79
2023/08/09 09:53:53;;;;;;;11.83;11.03;;;;;;;;;;5002021;28;21015;-78
2023/08/09 09:56:19;;;;;;;10.93;10.23;;;;;;;;;;5022234;28;20446;-79
2023/08/09 09:58:46;;;;;;;11.33;10.57;;;;;;;;;;5023071;28;20442;-78
2023/08/09 10:01:23;;;;;;;10.07;9.57;;;;;;;;;;5021668;28;20438;-79
2023/08/09 10:03:49;;;;;;;11.73;10.60;;;;;;;;;;5022588;28;20430;-79
2023/08/09 10:06:21;;;;;;;11.50;10.80;;;;;;;;;;5020966;28;20450;-78
2023/08/09 10:08:48;;;;;;;10.90;10.10;;;;;;;;;;5017928;28;20435;-80
2023/08/09 10:11:14;;;;;;;12.43;11.40;;;;;;;;;;5022553;28;20431;-79
2023/08/09 10:13:41;;;;;;;10.40;9.77;;;;;;;;;;5002895;28;21037;-78
2023/08/09 10:16:10;;;;;;;10.37;9.80;;;;;;;;;;5022357;28;21032;-78
2023/08/09 10:18:52;;;;;;;9.77;9.10;;;;;;;;;;5018952;28;20450;-78
2023/08/09 10:21:19;;;;;;;10.00;9.30;;;;;;;;;;5022466;28;20430;-81
2023/08/09 10:23:55;;;;;;;8.93;8.33;;;;;;;;;;4999886;28;20517;-77
2023/08/09 10:26:31;;;;;;;10.87;10.07;;;;;;;;;;5021330;28;20781;-79
2023/08/09 10:29:07;;;;;;;10.80;10.10;;;;;;;;;;5021882;28;20417;-79
2023/08/09 10:31:53;;;;;;;10.10;9.10;;;;;;;;;;5023556;28;20438;-78
2023/08/09 10:34:20;;;;;;;9.17;8.57;;;;;;;;;;4995176;28;20489;-78
2023/08/09 10:36:53;;;;;;;10.70;9.97;;;;;;;;;;5023112;28;20439;-79
2023/08/09 10:39:19;;;;;;;9.30;8.63;;;;;;;;;;5004169;28;20438;-78
2023/08/09 10:41:55;;;;;;;8.93;8.20;;;;;;;;;;5023882;28;20538;-80
2023/08/09 10:44:39;;;;;;;8.80;8.20;;;;;;;;;;5018646;28;20462;-77
2023/08/09 10:47:19;;;;;;;9.43;8.73;;;;;;;;;;5021764;28;20821;-79
2023/08/09 10:49:48;;;;;;;9.20;8.40;;;;;;;;;;5021266;28;20529;-79
2023/08/09 10:52:15;;;;;;;10.03;9.40;;;;;;;;;;5021679;28;20465;-79
2023/08/09 10:54:41;;;;;;;9.43;8.67;;;;;;;;;;5021005;28;20469;-79
2023/08/09 10:57:09;;;;;;;6.60;6.20;;;;;;;;;;5022851;28;20446;-79
2023/08/09 10:59:35;;;;;;;7.10;6.70;;;;;;;;;;5021595;28;20634;-78
2023/08/09 11:02:01;;;;;;;7.33;6.87;;;;;;;;;;5019254;28;21888;-78
2023/08/09 11:04:27;;;;;;;8.83;8.10;;;;;;;;;;5018910;28;20430;-78
2023/08/09 11:06:53;;;;;;;9.10;8.30;;;;;;;;;;5021488;28;20514;-78
2023/08/09 11:09:24;;;;;;;8.70;8.20;;;;;;;;;;5018257;28;20436;-78
2023/08/09 11:11:51;;;;;;;10.70;9.80;;;;;;;;;;5018899;28;21065;-77
2023/08/09 11:14:18;;;;;;;7.10;6.70;;;;;;;;;;5022070;28;20447;-77
2023/08/09 11:16:44;;;;;;;7.73;7.33;;;;;;;;;;5020578;28;21012;-76
2023/08/09 11:19:13;;;;;;;9.03;8.27;;;;;;;;;;5021584;28;20433;-78
2023/08/09 11:21:42;;;;;;;9.13;8.57;;;;;;;;;;5018703;28;20450;-79
2023/08/09 11:24:09;;;;;;;8.77;8.07;;;;;;;;;;5021746;28;20514;-78
2023/08/09 11:26:36;;;;;;;10.37;9.47;;;;;;;;;;5022472;28;20488;-80
2023/08/09 11:29:06;;;;;;;10.37;9.37;;;;;;;;;;5024814;28;20431;-77
2023/08/09 11:31:33;;;;;;;11.83;11.00;;;;;;;;;;5020880;28;20502;-78
2023/08/09 11:34:00;;;;;;;7.17;6.67;;;;;;;;;;5017354;28;21000;-78
2023/08/09 11:36:32;;;;;;;7.00;6.60;;;;;;;;;;5018532;28;20963;-78
2023/08/09 11:38:58;;;;;;;8.57;7.73;;;;;;;;;;5020921;28;20427;-76
2023/08/09 11:41:25;;;;;;;5.80;5.40;;;;;;;;;;5023052;28;21176;-78
2023/08/09 11:43:52;;;;;;;6.90;6.50;;;;;;;;;;5022589;28;20561;-76
2023/08/09 11:46:26;;;;;;;7.27;6.00;;;;;;;;;;5001078;28;20462;-77
2023/08/09 11:48:52;;;;;;;5.50;5.00;;;;;;;;;;5018756;28;21027;-78
2023/08/09 11:51:20;;;;;;;4.13;3.93;;;;;;;;;;5017977;28;20443;-77
2023/08/09 11:53:47;;;;;;;4.20;4.10;;;;;;;;;;5018497;28;20414;-78
2023/08/09 11:56:16;;;;;;;3.57;3.37;;;;;;;;;;5021809;28;20653;-77
2023/08/09 11:58:43;;;;;;;3.13;3.03;;;;;;;;;;5004519;28;20447;-76
2023/08/09 12:01:18;;;;;;;3.73;3.57;;;;;;;;;;5004954;28;20840;-78
2023/08/09 12:03:45;;;;;;;3.17;3.00;;;;;;;;;;5024037;28;20505;-78
2023/08/09 12:06:11;;;;;;;3.53;3.47;;;;;;;;;;5018619;28;20469;-76
2023/08/09 12:08:37;;;;;;;3.97;3.87;;;;;;;;;;5017044;28;20442;-77
2023/08/09 12:11:04;;;;;;;2.90;2.90;;;;;;;;;;5018741;28;20534;-77
2023/08/09 12:13:30;;;;;;;3.20;3.10;;;;;;;;;;5020709;28;20455;-77
2023/08/09 12:15:56;;;;;;;3.40;3.20;;;;;;;;;;4997101;28;20438;-77
2023/08/09 12:18:23;;;;;;;2.20;2.10;;;;;;;;;;5016892;28;20541;-80
2023/08/09 12:20:49;;;;;;;1.63;1.63;;;;;;;;;;5020483;28;20502;-77
2023/08/09 12:23:15;;;;;;;1.60;1.60;;;;;;;;;;5017278;28;20994;-78
2023/08/09 12:25:43;;;;;;;2.20;2.03;;;;;;;;;;5002806;28;20550;-78
2023/08/09 12:28:09;;;;;;;2.00;1.90;;;;;;;;;;5020902;28;20457;-81
2023/08/09 12:30:37;;;;;;;1.83;1.73;;;;;;;;;;5002754;28;20520;-78
2023/08/09 12:33:03;;;;;;;1.20;1.20;;;;;;;;;;5020428;28;20453;-80
2023/08/09 12:35:29;;;;;;;1.60;1.50;;;;;;;;;;4997100;28;20452;-80
2023/08/09 12:37:55;;;;;;;1.80;1.80;;;;;;;;;;5019674;28;20450;-80
2023/08/09 12:40:21;;;;;;;1.50;1.50;;;;;;;;;;5011152;28;20458;-80
2023/08/09 12:42:47;;;;;;;2.77;2.50;;;;;;;;;;5020037;28;20457;-80
2023/08/09 12:45:13;;;;;;;1.80;1.50;;;;;;;;;;5018833;28;20536;-81
2023/08/09 12:47:39;;;;;;;1.37;1.37;;;;;;;;;;4997082;28;20442;-78
2023/08/09 12:50:05;;;;;;;1.50;1.50;;;;;;;;;;5016832;28;20453;-80
2023/08/09 12:52:31;;;;;;;2.23;2.23;;;;;;;;;;5020093;28;20961;-80
2023/08/09 12:54:57;;;;;;;2.30;2.20;;;;;;;;;;5016914;28;20481;-80
2023/08/09 12:57:23;;;;;;;2.10;2.10;;;;;;;;;;5001103;28;20437;-79
2023/08/09 12:59:49;;;;;;;10.33;2.30;;;;;;;;;;5020453;28;20455;-77
2023/08/09 13:02:15;;;;;;;2.10;2.10;;;;;;;;;;5019552;28;20431;-77
2023/08/09 13:04:41;;;;;;;2.10;2.00;;;;;;;;;;5016163;28;20922;-77
2023/08/09 13:07:08;;;;;;;2.33;2.33;;;;;;;;;;5002032;28;20476;-78
2023/08/09 13:09:36;;;;;;;2.70;2.50;;;;;;;;;;5008360;28;20507;-76
2023/08/09 13:12:06;;;;;;;4.10;2.30;;;;;;;;;;5002298;28;20422;-78
2023/08/09 13:14:33;;;;;;;2.20;2.20;;;;;;;;;;5019014;28;20820;-78
2023/08/09 13:16:59;;;;;;;1.90;1.90;;;;;;;;;;5019135;28;20439;-77
2023/08/09 13:19:25;;;;;;;2.53;2.43;;;;;;;;;;5019247;28;20430;-78
2023/08/09 13:21:51;;;;;;;2.70;2.37;;;;;;;;;;5018179;28;20437;-78
2023/08/09 13:24:17;;;;;;;2.20;2.20;;;;;;;;;;5018420;28;20559;-78
2023/08/09 13:26:43;;;;;;;2.20;2.10;;;;;;;;;;5019636;28;20493;-77
2023/08/09 13:29:09;;;;;;;2.17;2.17;;;;;;;;;;5020030;28;20441;-79
2023/08/09 13:31:35;;;;;;;2.33;2.33;;;;;;;;;;5020129;28;20527;-79
2023/08/09 13:34:01;;;;;;;2.40;2.20;;;;;;;;;;5018602;28;20443;-78
2023/08/09 13:36:27;;;;;;;2.13;2.13;;;;;;;;;;5016733;28;21011;-78
2023/08/09 13:38:53;;;;;;;2.30;2.20;;;;;;;;;;4994271;28;20438;-78
2023/08/09 13:41:19;;;;;;;1.93;1.93;;;;;;;;;;5017731;28;20423;-77
2023/08/09 13:43:45;;;;;;;2.00;2.00;;;;;;;;;;5021599;28;20961;-78
2023/08/09 13:46:11;;;;;;;2.53;2.40;;;;;;;;;;5023575;28;20465;-79
2023/08/09 13:48:38;;;;;;;2.37;2.27;;;;;;;;;;5023401;28;20442;-78
2023/08/09 13:51:05;;;;;;;2.60;2.50;;;;;;;;;;5024932;28;20484;-78
2023/08/09 13:53:31;;;;;;;3.03;2.93;;;;;;;;;;5026354;28;20839;-77
2023/08/09 13:55:57;;;;;;;2.67;2.57;;;;;;;;;;5025493;28;20562;-78
2023/08/09 13:58:23;;;;;;;2.73;2.30;;;;;;;;;;5024089;28;20470;-78
2023/08/09 14:00:49;;;;;;;2.57;2.47;;;;;;;;;;5022633;28;20481;-78
2023/08/09 14:03:15;;;;;;;2.80;2.70;;;;;;;;;;5024448;28;20449;-78
2023/08/09 14:05:41;;;;;;;3.97;2.50;;;;;;;;;;5023601;28;20610;-79
2023/08/09 14:08:10;;;;;;;2.83;2.80;;;;;;;;;;5021719;28;20814;-78
2023/08/09 14:10:36;;;;;;;2.93;2.80;;;;;;;;;;5002729;28;20450;-77
2023/08/09 14:13:02;;;;;;;2.40;2.20;;;;;;;;;;5022875;28;20890;-79
2023/08/09 14:15:28;;;;;;;2.37;2.37;;;;;;;;;;5020740;28;20447;-78
2023/08/09 14:17:54;;;;;;;2.63;2.63;;;;;;;;;;5022803;28;20516;-78
2023/08/09 14:20:21;;;;;;;2.60;2.60;;;;;;;;;;5022292;28;20443;-77
2023/08/09 14:22:50;;;;;;;2.90;2.83;;;;;;;;;;5021071;28;20446;-78
2023/08/09 14:25:18;;;;;;;2.90;2.87;;;;;;;;;;5024016;28;20466;-78
2023/08/09 14:27:44;;;;;;;3.00;3.00;;;;;;;;;;5022194;28;20527;-79
2023/08/09 14:30:10;;;;;;;3.17;2.97;;;;;;;;;;5021511;28;20434;-79
2023/08/09 14:32:36;;;;;;;3.43;3.23;;;;;;;;;;5023226;28;20815;-77
2023/08/09 14:35:03;;;;;;;3.03;2.93;;;;;;;;;;5022796;28;20463;-79